createdAt,value
2023-01-27T00:00:44.511Z,453.00
2023-01-27T00:01:44.514Z,455.00
2023-01-27T00:02:44.549Z,455.00
2023-01-27T00:03:44.589Z,458.00
2023-01-27T00:04:44.529Z,460.00
2023-01-27T00:05:44.528Z,462.00
2023-01-27T00:06:44.540Z,460.00
2023-01-27T00:07:44.530Z,460.00
2023-01-27T00:08:44.557Z,460.00
2023-01-27T00:09:44.543Z,461.00
2023-01-27T00:10:44.542Z,465.00
2023-01-27T00:11:44.526Z,465.00
2023-01-27T00:12:44.536Z,464.00
2023-01-27T00:13:44.540Z,465.00
2023-01-27T00:14:44.547Z,464.00
2023-01-27T00:15:44.566Z,466.00
2023-01-27T00:16:44.574Z,463.00
2023-01-27T00:17:44.540Z,465.00
2023-01-27T00:18:44.562Z,463.00
2023-01-27T00:19:44.568Z,462.00
2023-01-27T00:20:44.581Z,461.00
2023-01-27T00:21:44.565Z,463.00
2023-01-27T00:22:44.581Z,463.00
2023-01-27T00:23:44.579Z,465.00
2023-01-27T00:24:44.570Z,465.00
2023-01-27T00:25:44.591Z,464.00
2023-01-27T00:26:44.585Z,461.00
2023-01-27T00:27:44.604Z,460.00
2023-01-27T00:28:44.614Z,458.00
2023-01-27T00:29:44.590Z,458.00
2023-01-27T00:30:44.615Z,459.00
2023-01-27T00:31:44.667Z,459.00
2023-01-27T00:32:44.647Z,460.00
2023-01-27T00:33:44.580Z,461.00
2023-01-27T00:34:44.595Z,462.00
2023-01-27T00:35:44.579Z,462.00
2023-01-27T00:36:44.601Z,462.00
2023-01-27T00:37:44.572Z,461.00
2023-01-27T00:38:44.556Z,462.00
2023-01-27T00:39:44.561Z,464.00
2023-01-27T00:40:44.562Z,464.00
2023-01-27T00:41:44.554Z,466.00
2023-01-27T00:42:44.546Z,467.00
2023-01-27T00:43:44.545Z,469.00
2023-01-27T00:44:44.553Z,470.00
2023-01-27T00:45:44.537Z,468.00
2023-01-27T00:46:44.582Z,467.00
2023-01-27T00:47:44.531Z,466.00
2023-01-27T00:48:44.533Z,466.00
2023-01-27T00:49:44.521Z,466.00
2023-01-27T00:50:44.508Z,468.00
2023-01-27T00:51:44.500Z,467.00
2023-01-27T00:52:44.489Z,468.00
2023-01-27T00:53:44.490Z,468.00
2023-01-27T00:54:44.480Z,468.00
2023-01-27T00:55:44.484Z,471.00
2023-01-27T00:56:44.459Z,471.00
2023-01-27T00:57:44.463Z,473.00
2023-01-27T00:58:44.466Z,475.00
2023-01-27T00:59:44.471Z,474.00
2023-01-27T01:00:44.457Z,472.00
2023-01-27T01:01:44.496Z,471.00
2023-01-27T01:02:44.531Z,471.00
2023-01-27T01:03:44.445Z,471.00
2023-01-27T01:04:44.440Z,470.00
2023-01-27T01:05:44.449Z,469.00
2023-01-27T01:06:44.440Z,468.00
2023-01-27T01:07:44.433Z,469.00
2023-01-27T01:08:44.424Z,468.00
2023-01-27T01:09:44.427Z,465.00
2023-01-27T01:10:44.423Z,470.00
2023-01-27T01:11:44.398Z,468.00
2023-01-27T01:12:44.406Z,468.00
2023-01-27T01:13:44.373Z,470.00
2023-01-27T01:14:44.389Z,469.00
2023-01-27T01:15:44.420Z,468.00
2023-01-27T01:16:44.376Z,468.00
2023-01-27T01:17:44.345Z,468.00
2023-01-27T01:18:44.356Z,468.00
2023-01-27T01:19:44.353Z,469.00
2023-01-27T01:20:44.347Z,466.00
2023-01-27T01:21:44.316Z,464.00
2023-01-27T01:22:44.313Z,462.00
2023-01-27T01:23:44.315Z,465.00
2023-01-27T01:24:44.332Z,464.00
2023-01-27T01:25:44.289Z,464.00
2023-01-27T01:26:44.293Z,466.00
2023-01-27T01:27:44.289Z,465.00
2023-01-27T01:28:44.284Z,465.00
2023-01-27T01:29:44.299Z,462.00
2023-01-27T01:30:44.298Z,461.00
2023-01-27T01:31:44.329Z,461.00
2023-01-27T01:32:44.269Z,465.00
2023-01-27T01:33:44.267Z,465.00
2023-01-27T01:34:44.292Z,466.00
2023-01-27T01:35:44.260Z,466.00
2023-01-27T01:36:44.270Z,466.00
2023-01-27T01:37:44.261Z,464.00
2023-01-27T01:38:44.269Z,463.00
2023-01-27T01:39:44.267Z,463.00
2023-01-27T01:40:44.818Z,462.00
2023-01-27T01:41:44.273Z,463.00
2023-01-27T01:42:44.272Z,462.00
2023-01-27T01:43:44.269Z,462.00
2023-01-27T01:44:44.280Z,463.00
2023-01-27T01:45:44.279Z,461.00
2023-01-27T01:46:44.306Z,463.00
2023-01-27T01:47:44.262Z,461.00
2023-01-27T01:48:44.283Z,464.00
2023-01-27T01:49:44.267Z,464.00
2023-01-27T01:50:44.271Z,464.00
2023-01-27T01:51:44.289Z,463.00
2023-01-27T01:52:44.273Z,462.00
2023-01-27T01:53:44.277Z,462.00
2023-01-27T01:54:44.276Z,463.00
2023-01-27T01:55:44.294Z,463.00
2023-01-27T01:56:44.294Z,461.00
2023-01-27T01:57:44.294Z,460.00
2023-01-27T01:58:44.536Z,459.00
2023-01-27T01:59:44.297Z,459.00
2023-01-27T02:00:44.286Z,461.00
2023-01-27T02:01:44.286Z,462.00
2023-01-27T02:02:44.382Z,461.00
2023-01-27T02:03:44.292Z,460.00
2023-01-27T02:04:44.300Z,459.00
2023-01-27T02:05:44.293Z,457.00
2023-01-27T02:06:44.304Z,460.00
2023-01-27T02:07:44.297Z,460.00
2023-01-27T02:08:44.342Z,461.00
2023-01-27T02:09:44.289Z,460.00
2023-01-27T02:10:44.290Z,461.00
2023-01-27T02:11:44.284Z,460.00
2023-01-27T02:12:44.283Z,459.00
2023-01-27T02:13:44.314Z,458.00
2023-01-27T02:14:44.287Z,460.00
2023-01-27T02:15:44.279Z,462.00
2023-01-27T02:16:44.368Z,461.00
2023-01-27T02:17:44.287Z,463.00
2023-01-27T02:18:44.292Z,465.00
2023-01-27T02:19:44.284Z,464.00
2023-01-27T02:20:44.278Z,465.00
2023-01-27T02:21:44.282Z,466.00
2023-01-27T02:22:44.271Z,464.00
2023-01-27T02:23:44.283Z,468.00
2023-01-27T02:24:44.274Z,470.00
2023-01-27T02:25:44.270Z,470.00
2023-01-27T02:26:44.288Z,471.00
2023-01-27T02:27:44.280Z,471.00
2023-01-27T02:28:44.280Z,470.00
2023-01-27T02:29:44.280Z,471.00
2023-01-27T02:30:44.367Z,471.00
2023-01-27T02:31:44.456Z,468.00
2023-01-27T02:32:44.292Z,467.00
2023-01-27T02:33:44.287Z,464.00
2023-01-27T02:34:44.311Z,463.00
2023-01-27T02:35:44.316Z,460.00
2023-01-27T02:36:44.313Z,461.00
2023-01-27T02:37:44.307Z,462.00
2023-01-27T02:38:44.297Z,463.00
2023-01-27T02:39:44.296Z,464.00
2023-01-27T02:40:44.303Z,462.00
2023-01-27T02:41:44.301Z,461.00
2023-01-27T02:42:44.302Z,463.00
2023-01-27T02:43:44.309Z,463.00
2023-01-27T02:44:44.302Z,467.00
2023-01-27T02:45:44.298Z,466.00
2023-01-27T02:46:44.330Z,463.00
2023-01-27T02:47:44.306Z,464.00
2023-01-27T02:48:44.322Z,463.00
2023-01-27T02:49:44.296Z,462.00
2023-01-27T02:50:44.315Z,462.00
2023-01-27T02:51:44.313Z,461.00
2023-01-27T02:52:44.322Z,461.00
2023-01-27T02:53:44.350Z,460.00
2023-01-27T02:54:44.348Z,462.00
2023-01-27T02:55:44.316Z,462.00
2023-01-27T02:56:44.319Z,463.00
2023-01-27T02:57:44.319Z,463.00
2023-01-27T02:58:44.330Z,462.00
2023-01-27T02:59:44.337Z,461.00
2023-01-27T03:00:44.322Z,464.00
2023-01-27T03:01:44.386Z,465.00
2023-01-27T03:02:44.366Z,463.00
2023-01-27T03:03:44.453Z,466.00
2023-01-27T03:04:44.342Z,465.00
2023-01-27T03:05:44.351Z,465.00
2023-01-27T03:06:44.351Z,464.00
2023-01-27T03:07:44.345Z,464.00
2023-01-27T03:08:44.360Z,462.00
2023-01-27T03:09:44.353Z,464.00
2023-01-27T03:10:44.385Z,464.00
2023-01-27T03:11:44.359Z,463.00
2023-01-27T03:12:44.374Z,461.00
2023-01-27T03:13:44.457Z,461.00
2023-01-27T03:14:44.375Z,462.00
2023-01-27T03:15:44.414Z,462.00
2023-01-27T03:16:44.392Z,460.00
2023-01-27T03:17:44.388Z,459.00
2023-01-27T03:18:44.405Z,458.00
2023-01-27T03:19:44.404Z,457.00
2023-01-27T03:20:44.437Z,459.00
2023-01-27T03:21:44.415Z,457.00
2023-01-27T03:22:44.411Z,458.00
2023-01-27T03:23:44.413Z,455.00
2023-01-27T03:24:44.418Z,455.00
2023-01-27T03:25:44.417Z,456.00
2023-01-27T03:26:44.418Z,457.00
2023-01-27T03:27:44.423Z,457.00
2023-01-27T03:28:44.419Z,456.00
2023-01-27T03:29:44.416Z,456.00
2023-01-27T03:30:44.477Z,458.00
2023-01-27T03:31:44.574Z,458.00
2023-01-27T03:32:44.418Z,458.00
2023-01-27T03:33:44.412Z,460.00
2023-01-27T03:34:44.410Z,460.00
2023-01-27T03:35:44.417Z,457.00
2023-01-27T03:36:44.425Z,456.00
2023-01-27T03:37:44.432Z,457.00
2023-01-27T03:38:44.443Z,460.00
2023-01-27T03:39:44.436Z,459.00
2023-01-27T03:40:44.441Z,460.00
2023-01-27T03:41:44.441Z,460.00
2023-01-27T03:42:44.452Z,457.00
2023-01-27T03:43:44.461Z,459.00
2023-01-27T03:44:44.459Z,457.00
2023-01-27T03:45:44.468Z,462.00
2023-01-27T03:46:44.469Z,459.00
2023-01-27T03:47:44.471Z,459.00
2023-01-27T03:48:44.464Z,456.00
2023-01-27T03:49:44.462Z,455.00
2023-01-27T03:50:44.471Z,454.00
2023-01-27T03:51:44.468Z,456.00
2023-01-27T03:52:44.463Z,454.00
2023-01-27T03:53:44.477Z,452.00
2023-01-27T03:54:44.476Z,453.00
2023-01-27T03:55:44.482Z,454.00
2023-01-27T03:56:44.479Z,453.00
2023-01-27T03:57:44.485Z,453.00
2023-01-27T03:58:44.498Z,451.00
2023-01-27T03:59:44.507Z,449.00
2023-01-27T04:00:44.508Z,451.00
2023-01-27T04:01:44.557Z,453.00
2023-01-27T04:02:44.533Z,451.00
2023-01-27T04:03:44.526Z,454.00
2023-01-27T04:04:44.521Z,451.00
2023-01-27T04:05:44.526Z,453.00
2023-01-27T04:06:44.519Z,451.00
2023-01-27T04:07:44.537Z,449.00
2023-01-27T04:08:44.537Z,449.00
2023-01-27T04:09:44.533Z,450.00
2023-01-27T04:10:44.516Z,452.00
2023-01-27T04:11:44.532Z,454.00
2023-01-27T04:12:44.507Z,453.00
2023-01-27T04:13:44.505Z,450.00
2023-01-27T04:14:44.515Z,450.00
2023-01-27T04:15:44.519Z,450.00
2023-01-27T04:16:44.505Z,452.00
2023-01-27T04:17:44.504Z,450.00
2023-01-27T04:18:44.505Z,452.00
2023-01-27T04:19:44.497Z,454.00
2023-01-27T04:20:44.510Z,452.00
2023-01-27T04:21:44.492Z,452.00
2023-01-27T04:22:44.505Z,451.00
2023-01-27T04:23:44.499Z,449.00
2023-01-27T04:24:44.501Z,451.00
2023-01-27T04:25:44.496Z,452.00
2023-01-27T04:26:44.488Z,448.00
2023-01-27T04:27:44.495Z,448.00
2023-01-27T04:28:45.001Z,448.00
2023-01-27T04:29:44.502Z,448.00
2023-01-27T04:30:44.505Z,449.00
2023-01-27T04:31:44.581Z,448.00
2023-01-27T04:32:44.502Z,450.00
2023-01-27T04:33:44.511Z,450.00
2023-01-27T04:34:44.528Z,451.00
2023-01-27T04:35:44.513Z,450.00
2023-01-27T04:36:44.521Z,453.00
2023-01-27T04:37:44.526Z,456.00
2023-01-27T04:38:44.528Z,456.00
2023-01-27T04:39:44.551Z,457.00
2023-01-27T04:40:44.538Z,457.00
2023-01-27T04:41:44.535Z,455.00
2023-01-27T04:42:44.534Z,455.00
2023-01-27T04:43:44.541Z,454.00
2023-01-27T04:44:44.557Z,453.00
2023-01-27T04:45:44.640Z,452.00
2023-01-27T04:46:44.565Z,451.00
2023-01-27T04:47:44.568Z,450.00
2023-01-27T04:48:44.563Z,450.00
2023-01-27T04:49:44.580Z,449.00
2023-01-27T04:50:44.564Z,450.00
2023-01-27T04:51:46.229Z,451.00
2023-01-27T04:52:44.568Z,451.00
2023-01-27T04:53:44.579Z,451.00
2023-01-27T04:54:44.590Z,452.00
2023-01-27T04:55:44.603Z,450.00
2023-01-27T04:56:44.592Z,449.00
2023-01-27T04:57:44.578Z,446.00
2023-01-27T04:58:44.579Z,447.00
2023-01-27T04:59:44.581Z,447.00
2023-01-27T05:00:44.600Z,446.00
2023-01-27T05:01:44.625Z,446.00
2023-01-27T05:02:44.683Z,447.00
2023-01-27T05:03:44.583Z,446.00
2023-01-27T05:04:44.587Z,442.00
2023-01-27T05:05:44.587Z,441.00
2023-01-27T05:06:44.597Z,444.00
2023-01-27T05:07:44.593Z,443.00
2023-01-27T05:08:44.588Z,441.00
2023-01-27T05:09:44.612Z,440.00
2023-01-27T05:10:44.596Z,442.00
2023-01-27T05:11:44.613Z,440.00
2023-01-27T05:12:44.621Z,439.00
2023-01-27T05:13:44.632Z,439.00
2023-01-27T05:14:44.621Z,439.00
2023-01-27T05:15:44.727Z,442.00
2023-01-27T05:16:44.723Z,443.00
2023-01-27T05:17:44.635Z,443.00
2023-01-27T05:18:44.632Z,443.00
2023-01-27T05:19:44.635Z,443.00
2023-01-27T05:20:44.630Z,442.00
2023-01-27T05:21:44.643Z,440.00
2023-01-27T05:22:44.636Z,440.00
2023-01-27T05:23:44.642Z,441.00
2023-01-27T05:24:44.641Z,444.00
2023-01-27T05:25:44.647Z,440.00
2023-01-27T05:26:44.653Z,440.00
2023-01-27T05:27:44.649Z,437.00
2023-01-27T05:28:44.658Z,439.00
2023-01-27T05:29:44.660Z,438.00
2023-01-27T05:30:44.699Z,436.00
2023-01-27T05:31:44.821Z,439.00
2023-01-27T05:32:44.671Z,440.00
2023-01-27T05:33:44.680Z,440.00
2023-01-27T05:34:44.680Z,440.00
2023-01-27T05:35:44.717Z,438.00
2023-01-27T05:36:44.682Z,435.00
2023-01-27T05:37:44.692Z,436.00
2023-01-27T05:38:44.692Z,436.00
2023-01-27T05:39:44.688Z,437.00
2023-01-27T05:40:44.698Z,438.00
2023-01-27T05:41:44.698Z,438.00
2023-01-27T05:42:44.704Z,437.00
2023-01-27T05:43:44.702Z,435.00
2023-01-27T05:44:44.691Z,436.00
2023-01-27T05:45:44.680Z,436.00
2023-01-27T05:46:45.227Z,435.00
2023-01-27T05:47:44.679Z,430.00
2023-01-27T05:48:44.690Z,430.00
2023-01-27T05:49:44.680Z,431.00
2023-01-27T05:50:44.679Z,431.00
2023-01-27T05:51:44.679Z,435.00
2023-01-27T05:52:44.687Z,433.00
2023-01-27T05:53:44.676Z,433.00
2023-01-27T05:54:44.695Z,433.00
2023-01-27T05:55:44.741Z,433.00
2023-01-27T05:56:44.672Z,434.00
2023-01-27T05:57:44.691Z,432.00
2023-01-27T05:58:44.732Z,432.00
2023-01-27T05:59:44.677Z,433.00
2023-01-27T06:00:44.679Z,430.00
2023-01-27T06:01:44.843Z,431.00
2023-01-27T06:02:44.824Z,431.00
2023-01-27T06:03:44.692Z,432.00
2023-01-27T06:04:44.680Z,430.00
2023-01-27T06:05:44.665Z,431.00
2023-01-27T06:06:44.677Z,432.00
2023-01-27T06:07:44.673Z,432.00
2023-01-27T06:08:44.680Z,432.00
2023-01-27T06:09:44.679Z,432.00
2023-01-27T06:10:44.682Z,431.00
2023-01-27T06:11:44.689Z,428.00
2023-01-27T06:12:44.685Z,428.00
2023-01-27T06:13:44.687Z,425.00
2023-01-27T06:14:44.704Z,425.00
2023-01-27T06:15:44.676Z,430.00
2023-01-27T06:16:44.759Z,430.00
2023-01-27T06:17:44.690Z,429.00
2023-01-27T06:18:44.682Z,428.00
2023-01-27T06:19:44.681Z,428.00
2023-01-27T06:20:44.678Z,427.00
2023-01-27T06:21:44.693Z,424.00
2023-01-27T06:22:44.691Z,423.00
2023-01-27T06:23:44.705Z,421.00
2023-01-27T06:24:44.690Z,423.00
2023-01-27T06:25:44.698Z,421.00
2023-01-27T06:26:44.702Z,421.00
2023-01-27T06:27:44.705Z,420.00
2023-01-27T06:28:44.725Z,421.00
2023-01-27T06:29:44.711Z,422.00
2023-01-27T06:30:44.836Z,424.00
2023-01-27T06:31:44.762Z,426.00
2023-01-27T06:32:44.715Z,426.00
2023-01-27T06:33:44.743Z,427.00
2023-01-27T06:34:44.748Z,430.00
2023-01-27T06:35:44.736Z,429.00
2023-01-27T06:36:44.730Z,425.00
2023-01-27T06:37:44.735Z,424.00
2023-01-27T06:38:44.791Z,423.00
2023-01-27T06:39:44.749Z,422.00
2023-01-27T06:40:44.769Z,422.00
2023-01-27T06:41:44.728Z,421.00
2023-01-27T06:42:44.742Z,422.00
2023-01-27T06:43:44.735Z,425.00
2023-01-27T06:44:44.730Z,422.00
2023-01-27T06:45:44.741Z,467.00
2023-01-27T06:46:44.783Z,543.00
2023-01-27T06:47:44.735Z,585.00
2023-01-27T06:48:44.737Z,600.00
2023-01-27T06:49:44.719Z,630.00
2023-01-27T06:50:44.718Z,657.00
2023-01-27T06:51:44.713Z,667.00
2023-01-27T06:52:44.712Z,705.00
2023-01-27T06:53:44.719Z,722.00
2023-01-27T06:54:44.707Z,733.00
2023-01-27T06:55:44.712Z,749.00
2023-01-27T06:56:44.695Z,778.00
2023-01-27T06:57:44.682Z,800.00
2023-01-27T06:58:44.703Z,815.00
2023-01-27T06:59:44.666Z,839.00
2023-01-27T07:00:44.669Z,885.00
2023-01-27T07:01:44.776Z,908.00
2023-01-27T07:02:44.750Z,921.00
2023-01-27T07:03:45.215Z,928.00
2023-01-27T07:04:44.731Z,941.00
2023-01-27T07:05:44.674Z,958.00
2023-01-27T09:01:44.715Z,721.00
2023-01-27T09:04:44.767Z,779.00
2023-01-27T09:06:44.655Z,802.00
2023-01-27T09:07:44.653Z,815.00
2023-01-27T09:08:44.686Z,798.00
2023-01-27T09:09:44.652Z,810.00
2023-01-27T09:10:44.683Z,816.00
2023-01-27T09:11:44.826Z,809.00
2023-01-27T09:12:44.730Z,795.00
2023-01-27T09:13:44.652Z,744.00
2023-01-27T09:14:44.736Z,662.00
2023-01-27T09:15:51.728Z,658.00
2023-01-27T09:16:44.693Z,638.00
2023-01-27T09:17:44.697Z,499.00
2023-01-27T09:18:44.694Z,595.00
2023-01-27T09:19:44.719Z,648.00
2023-01-27T09:20:44.726Z,712.00
2023-01-27T09:21:44.755Z,735.00
2023-01-27T09:22:44.853Z,790.00
2023-01-27T09:23:44.767Z,824.00
2023-01-27T09:24:44.769Z,851.00
2023-01-27T09:25:44.804Z,868.00
2023-01-27T09:26:44.793Z,864.00
2023-01-27T09:27:44.800Z,879.00
2023-01-27T09:28:44.808Z,943.00
2023-01-27T09:29:44.805Z,991.00
2023-01-27T09:30:46.223Z,1015.00
2023-01-27T09:31:44.995Z,1035.00
2023-01-27T09:32:44.853Z,1059.00
2023-01-27T09:33:44.852Z,1080.00
2023-01-27T09:34:44.842Z,1074.00
2023-01-27T09:35:44.848Z,1073.00
2023-01-27T09:36:44.855Z,1071.00
2023-01-27T09:37:44.845Z,1069.00
2023-01-27T09:38:44.876Z,1071.00
2023-01-27T09:39:44.885Z,1073.00
2023-01-27T09:40:44.857Z,1076.00
2023-01-27T09:41:44.851Z,1076.00
2023-01-27T09:42:44.867Z,1076.00
2023-01-27T09:43:44.856Z,1078.00
2023-01-27T09:44:44.857Z,1089.00
2023-01-27T09:45:44.863Z,1105.00
2023-01-27T09:46:44.865Z,1104.00
2023-01-27T09:47:44.841Z,1114.00
2023-01-27T09:48:44.840Z,1146.00
2023-01-27T09:49:44.843Z,1149.00
2023-01-27T09:50:44.837Z,1181.00
2023-01-27T09:51:44.848Z,1185.00
2023-01-27T09:52:47.793Z,1255.00
2023-01-27T09:53:44.841Z,1255.00
2023-01-27T09:54:44.852Z,1268.00
2023-01-27T09:55:44.848Z,1314.00
2023-01-27T09:56:44.864Z,1324.00
2023-01-27T09:57:44.860Z,1370.00
2023-01-27T09:58:44.846Z,1406.00
2023-01-27T09:59:44.875Z,1418.00
2023-01-27T10:00:45.784Z,1438.00
2023-01-27T10:01:44.894Z,1437.00
2023-01-27T10:02:44.839Z,1445.00
2023-01-27T10:03:44.839Z,1468.00
2023-01-27T10:04:44.871Z,1489.00
2023-01-27T10:05:44.824Z,1503.00
2023-01-27T10:06:44.831Z,1532.00
2023-01-27T10:07:44.822Z,1529.00
2023-01-27T10:08:44.824Z,1530.00
2023-01-27T10:09:44.834Z,1543.00
2023-01-27T10:10:44.807Z,1567.00
2023-01-27T10:11:44.806Z,1581.00
2023-01-27T10:12:44.802Z,1589.00
2023-01-27T10:13:44.878Z,1596.00
2023-01-27T10:14:44.807Z,1634.00
2023-01-27T10:15:44.800Z,1628.00
2023-01-27T10:16:44.806Z,1627.00
2023-01-27T10:17:44.791Z,1625.00
2023-01-27T10:18:44.771Z,1636.00
2023-01-27T10:19:44.761Z,1639.00
2023-01-27T10:20:45.286Z,1650.00
2023-01-27T10:21:44.751Z,1664.00
2023-01-27T10:22:44.909Z,1671.00
2023-01-27T10:23:44.760Z,1674.00
2023-01-27T10:24:44.756Z,1691.00
2023-01-27T10:25:44.718Z,1685.00
2023-01-27T10:26:44.767Z,1669.00
2023-01-27T10:27:44.721Z,1675.00
2023-01-27T10:28:44.717Z,1694.00
2023-01-27T10:29:44.735Z,1698.00
2023-01-27T10:30:44.782Z,1703.00
2023-01-27T10:31:44.786Z,1703.00
2023-01-27T10:32:44.856Z,1698.00
2023-01-27T10:33:44.735Z,1692.00
2023-01-27T10:34:44.687Z,1711.00
2023-01-27T10:35:44.675Z,1721.00
2023-01-27T10:36:44.701Z,1721.00
2023-01-27T10:37:44.669Z,1725.00
2023-01-27T10:38:44.681Z,1717.00
2023-01-27T10:39:44.672Z,1717.00
2023-01-27T10:44:44.686Z,1790.00
2023-01-27T11:04:44.692Z,1116.00
2023-01-27T11:05:44.669Z,1157.00
2023-01-27T11:06:44.690Z,1185.00
2023-01-27T11:07:44.711Z,1295.00
2023-01-27T11:08:44.708Z,1287.00
2023-01-27T11:09:44.745Z,1179.00
2023-01-27T11:10:44.723Z,1249.00
2023-01-27T11:11:44.781Z,1293.00
2023-01-27T11:12:44.715Z,1159.00
2023-01-27T11:13:44.819Z,1130.00
2023-01-27T11:14:44.714Z,1197.00
2023-01-27T11:15:44.714Z,1132.00
2023-01-27T11:16:44.777Z,1156.00
2023-01-27T11:17:44.735Z,1146.00
2023-01-27T11:18:44.734Z,1059.00
2023-01-27T11:19:44.848Z,1165.00
2023-01-27T11:20:44.774Z,1119.00
2023-01-27T11:21:47.276Z,1106.00
2023-01-27T11:22:45.759Z,962.00
2023-01-27T11:23:44.748Z,1068.00
2023-01-27T11:24:44.790Z,1073.00
2023-01-27T11:25:44.765Z,1046.00
2023-01-27T11:26:44.766Z,1068.00
2023-01-27T11:27:44.777Z,1051.00
2023-01-27T11:28:44.775Z,1062.00
2023-01-27T11:29:44.873Z,1111.00
2023-01-27T11:30:44.875Z,999.00
2023-01-27T11:31:44.822Z,1039.00
2023-01-27T11:32:44.791Z,1127.00
2023-01-27T11:33:44.810Z,1112.00
2023-01-27T11:34:44.804Z,1048.00
2023-01-27T11:35:44.841Z,1088.00
2023-01-27T11:36:44.811Z,1102.00
2023-01-27T11:37:44.832Z,1075.00
2023-01-27T11:38:44.819Z,1076.00
2023-01-27T11:39:44.807Z,1084.00
2023-01-27T11:40:44.824Z,1101.00
2023-01-27T11:41:44.844Z,1313.00
2023-01-27T11:42:44.812Z,1205.00
2023-01-27T11:43:44.820Z,1187.00
2023-01-27T11:44:44.811Z,1228.00
2023-01-27T11:45:44.918Z,1242.00
2023-01-27T11:46:44.826Z,1235.00
2023-01-27T11:47:44.821Z,1236.00
2023-01-27T11:48:44.823Z,1236.00
2023-01-27T11:49:44.819Z,1240.00
2023-01-27T11:50:44.845Z,1248.00
2023-01-27T11:51:44.846Z,1309.00
2023-01-27T11:52:44.872Z,1329.00
2023-01-27T11:53:45.282Z,1335.00
2023-01-27T11:54:44.821Z,1342.00
2023-01-27T11:55:44.812Z,1348.00
2023-01-27T11:56:44.859Z,1357.00
2023-01-27T11:57:44.817Z,1366.00
2023-01-27T11:58:44.815Z,1381.00
2023-01-27T11:59:44.819Z,1391.00
2023-01-27T12:00:44.805Z,1391.00
2023-01-27T12:01:44.893Z,1379.00
2023-01-27T12:02:45.039Z,1359.00
2023-01-27T12:03:44.875Z,1356.00
2023-01-27T12:04:44.864Z,1363.00
2023-01-27T12:05:44.799Z,1411.00
2023-01-27T12:06:44.802Z,1414.00
2023-01-27T12:09:44.821Z,1394.00
2023-01-27T12:10:44.813Z,1405.00
2023-01-27T12:11:44.782Z,1425.00
2023-01-27T12:12:44.786Z,1460.00
2023-01-27T12:13:44.773Z,1463.00
2023-01-27T12:14:44.779Z,1459.00
2023-01-27T12:15:44.837Z,1440.00
2023-01-27T12:16:44.763Z,1440.00
2023-01-27T12:17:44.767Z,1447.00
2023-01-27T12:18:44.756Z,1450.00
2023-01-27T12:19:44.758Z,1449.00
2023-01-27T12:20:44.732Z,1416.00
2023-01-27T12:21:44.733Z,1399.00
2023-01-27T12:22:44.732Z,1399.00
2023-01-27T12:23:44.724Z,1413.00
2023-01-27T12:24:44.717Z,1451.00
2023-01-27T12:25:44.760Z,1458.00
2023-01-27T12:26:44.726Z,1462.00
2023-01-27T12:27:44.687Z,1454.00
2023-01-27T12:28:44.690Z,1448.00
2023-01-27T12:29:44.668Z,1452.00
2023-01-27T12:30:44.784Z,1473.00
2023-01-27T12:31:44.739Z,1498.00
2023-01-27T12:33:44.668Z,1487.00
2023-01-27T18:54:43.634Z,429.00
2023-01-27T18:55:43.656Z,428.00
2023-01-27T18:56:43.642Z,429.00
2023-01-27T18:57:43.649Z,427.00
2023-01-27T18:58:43.647Z,428.00
2023-01-27T18:59:43.656Z,429.00
2023-01-27T19:00:43.671Z,429.00
2023-01-27T19:01:43.686Z,430.00
2023-01-27T19:02:43.667Z,427.00
2023-01-27T19:03:43.656Z,428.00
2023-01-27T19:04:43.686Z,429.00
2023-01-27T19:05:43.658Z,430.00
2023-01-27T19:06:43.662Z,432.00
2023-01-27T19:07:43.658Z,432.00
2023-01-27T19:08:43.655Z,426.00
2023-01-27T19:09:43.657Z,429.00
2023-01-27T19:10:43.660Z,428.00
2023-01-27T19:11:43.655Z,429.00
2023-01-27T19:12:43.665Z,439.00
2023-01-27T19:13:43.663Z,434.00
2023-01-27T19:14:43.661Z,429.00
2023-01-27T19:15:43.666Z,428.00
2023-01-27T19:16:43.666Z,427.00
2023-01-27T19:17:43.662Z,427.00
2023-01-27T19:18:43.661Z,423.00
2023-01-27T19:19:43.710Z,424.00
2023-01-27T19:20:43.674Z,421.00
2023-01-27T19:21:43.673Z,419.00
2023-01-27T19:22:43.687Z,419.00
2023-01-27T19:23:43.683Z,419.00
2023-01-27T19:24:43.698Z,419.00
2023-01-27T19:25:43.677Z,421.00
2023-01-27T19:26:43.674Z,418.00
2023-01-27T19:27:43.683Z,421.00
2023-01-27T19:28:43.677Z,419.00
2023-01-27T19:29:43.677Z,418.00
2023-01-27T19:30:43.774Z,420.00
2023-01-27T19:31:43.725Z,423.00
2023-01-27T19:32:43.690Z,425.00
2023-01-27T19:33:43.697Z,425.00
2023-01-27T19:34:43.692Z,427.00
2023-01-27T19:35:43.693Z,423.00
2023-01-27T19:36:43.682Z,420.00
2023-01-27T19:37:43.678Z,420.00
2023-01-27T19:38:43.680Z,417.00
2023-01-27T19:39:43.679Z,415.00
2023-01-27T19:40:43.692Z,416.00
2023-01-27T19:41:43.676Z,416.00
2023-01-27T19:42:43.675Z,413.00
2023-01-27T19:43:43.677Z,413.00
2023-01-27T19:44:43.687Z,413.00
2023-01-27T19:45:43.701Z,412.00
2023-01-27T19:46:43.679Z,412.00
2023-01-27T19:47:43.684Z,413.00
2023-01-27T19:48:43.683Z,414.00
2023-01-27T19:49:43.692Z,415.00
2023-01-27T19:50:43.696Z,416.00
2023-01-27T19:51:43.686Z,414.00
2023-01-27T19:52:43.692Z,411.00
2023-01-27T19:53:43.681Z,416.00
2023-01-27T19:54:43.686Z,412.00
2023-01-27T19:55:43.695Z,413.00
2023-01-27T19:56:43.699Z,413.00
2023-01-27T19:57:43.695Z,413.00
2023-01-27T19:58:43.704Z,415.00
2023-01-27T19:59:43.697Z,414.00
2023-01-27T20:00:43.796Z,412.00
2023-01-27T20:01:43.706Z,413.00
2023-01-27T20:02:43.701Z,413.00
2023-01-27T20:03:43.697Z,410.00
2023-01-27T20:04:43.784Z,411.00
2023-01-27T20:05:43.744Z,407.00
2023-01-27T20:06:43.711Z,408.00
2023-01-27T20:07:43.711Z,407.00
2023-01-27T20:08:43.748Z,411.00
2023-01-27T20:09:43.716Z,410.00
2023-01-27T20:10:43.720Z,412.00
2023-01-27T20:11:43.721Z,412.00
2023-01-27T20:12:43.716Z,412.00
2023-01-27T20:13:43.722Z,410.00
2023-01-27T20:14:43.748Z,409.00
2023-01-27T20:15:43.770Z,405.00
2023-01-27T20:16:43.777Z,408.00
2023-01-27T20:17:43.735Z,404.00
2023-01-27T20:18:43.737Z,402.00
2023-01-27T20:19:43.743Z,403.00
2023-01-27T20:20:43.733Z,404.00
2023-01-27T20:21:43.745Z,403.00
2023-01-27T20:22:43.740Z,407.00
2023-01-27T20:23:43.745Z,406.00
2023-01-27T20:24:43.747Z,405.00
2023-01-27T20:25:43.746Z,406.00
2023-01-27T20:26:43.757Z,408.00
2023-01-27T20:27:43.808Z,409.00
2023-01-27T20:28:43.775Z,411.00
2023-01-27T20:29:43.785Z,406.00
2023-01-27T20:30:43.833Z,407.00
2023-01-27T20:31:43.953Z,405.00
2023-01-27T20:32:43.793Z,406.00
2023-01-27T20:33:43.805Z,406.00
2023-01-27T20:34:43.803Z,406.00
2023-01-27T20:35:43.816Z,404.00
2023-01-27T20:36:43.828Z,401.00
2023-01-27T20:37:43.807Z,401.00
2023-01-27T20:38:43.829Z,398.00
2023-01-27T20:39:43.812Z,401.00
2023-01-27T20:40:43.819Z,398.00
2023-01-27T20:41:43.833Z,395.00
2023-01-27T20:42:43.836Z,396.00
2023-01-27T20:43:43.840Z,397.00
2023-01-27T20:44:43.844Z,397.00
2023-01-27T20:45:43.865Z,397.00
2023-01-27T20:46:43.857Z,396.00
2023-01-27T20:47:43.859Z,398.00
2023-01-27T20:48:43.875Z,399.00
2023-01-27T20:49:43.864Z,399.00
2023-01-27T20:50:43.868Z,400.00
2023-01-27T20:51:43.884Z,397.00
2023-01-27T20:52:43.883Z,396.00
2023-01-27T20:53:43.881Z,399.00
2023-01-27T20:54:43.888Z,398.00
2023-01-27T20:55:43.892Z,397.00
2023-01-27T20:56:43.907Z,399.00
2023-01-27T20:57:43.902Z,394.00
2023-01-27T20:58:43.907Z,393.00
2023-01-27T20:59:43.915Z,395.00
2023-01-27T21:00:43.904Z,397.00
2023-01-27T21:01:43.899Z,396.00
2023-01-27T21:02:43.911Z,398.00
2023-01-27T21:03:43.908Z,397.00
2023-01-27T21:04:43.907Z,394.00
2023-01-27T21:05:43.915Z,394.00
2023-01-27T21:06:43.910Z,396.00
2023-01-27T21:07:43.922Z,395.00